sensor_id;sensor_type;location;lat;lon;timestamp;pressure;altitude;pressure_sealevel;temperature;humidity
59170;BME280;52474;52.236;5.114;2023-04-24T00:00:26;99792.69;;;9.46;100.00
59170;BME280;52474;52.236;5.114;2023-04-24T00:02:52;99799.09;;;9.44;100.00
59170;BME280;52474;52.236;5.114;2023-04-24T00:05:22;99786.00;;;9.24;100.00
59170;BME280;52474;52.236;5.114;2023-04-24T00:07:48;99802.69;;;9.25;100.00
59170;BME280;52474;52.236;5.114;2023-04-24T00:10:13;99811.59;;;9.24;100.00
59170;BME280;52474;52.236;5.114;2023-04-24T00:12:40;99818.31;;;9.18;100.00
59170;BME280;52474;52.236;5.114;2023-04-24T00:15:09;99812.41;;;9.07;100.00
59170;BME280;52474;52.236;5.114;2023-04-24T00:17:34;99827.38;;;9.16;100.00
59170;BME280;52474;52.236;5.114;2023-04-24T00:20:07;99835.56;;;9.13;100.00
59170;BME280;52474;52.236;5.114;2023-04-24T00:22:33;99854.91;;;9.13;100.00
59170;BME280;52474;52.236;5.114;2023-04-24T00:24:59;99837.44;;;9.02;100.00
59170;BME280;52474;52.236;5.114;2023-04-24T00:27:24;99845.66;;;8.99;100.00
59170;BME280;52474;52.236;5.114;2023-04-24T00:29:50;99842.88;;;9.01;100.00
59170;BME280;52474;52.236;5.114;2023-04-24T00:32:16;99867.84;;;9.07;100.00
59170;BME280;52474;52.236;5.114;2023-04-24T00:34:43;99873.44;;;9.03;100.00
59170;BME280;52474;52.236;5.114;2023-04-24T00:37:09;99877.59;;;9.06;100.00
59170;BME280;52474;52.236;5.114;2023-04-24T00:39:36;99882.31;;;9.02;100.00
59170;BME280;52474;52.236;5.114;2023-04-24T00:42:02;99877.34;;;8.99;100.00
59170;BME280;52474;52.236;5.114;2023-04-24T00:44:27;99882.63;;;8.99;100.00
59170;BME280;52474;52.236;5.114;2023-04-24T00:46:54;99884.88;;;8.94;100.00
59170;BME280;52474;52.236;5.114;2023-04-24T00:49:22;99897.78;;;8.97;100.00
59170;BME280;52474;52.236;5.114;2023-04-24T00:51:48;99895.56;;;8.93;100.00
59170;BME280;52474;52.236;5.114;2023-04-24T00:54:16;99891.41;;;8.90;100.00
59170;BME280;52474;52.236;5.114;2023-04-24T00:56:42;99905.16;;;8.94;100.00
59170;BME280;52474;52.236;5.114;2023-04-24T00:59:10;99904.59;;;8.90;100.00
59170;BME280;52474;52.236;5.114;2023-04-24T01:01:38;99913.63;;;8.88;100.00
59170;BME280;52474;52.236;5.114;2023-04-24T01:04:09;99904.22;;;8.75;100.00
59170;BME280;52474;52.236;5.114;2023-04-24T01:06:38;99909.91;;;8.80;100.00
59170;BME280;52474;52.236;5.114;2023-04-24T01:09:04;99916.56;;;8.85;100.00
59170;BME280;52474;52.236;5.114;2023-04-24T01:11:30;99924.78;;;8.81;100.00
59170;BME280;52474;52.236;5.114;2023-04-24T01:13:56;99908.94;;;8.81;100.00
59170;BME280;52474;52.236;5.114;2023-04-24T01:16:26;99918.13;;;8.77;100.00
59170;BME280;52474;52.236;5.114;2023-04-24T01:18:53;99901.47;;;8.67;100.00
59170;BME280;52474;52.236;5.114;2023-04-24T01:21:20;99924.22;;;8.78;100.00
59170;BME280;52474;52.236;5.114;2023-04-24T01:23:47;99904.09;;;8.67;100.00
59170;BME280;52474;52.236;5.114;2023-04-24T01:26:15;99923.69;;;8.74;100.00
59170;BME280;52474;52.236;5.114;2023-04-24T01:28:42;99929.50;;;8.78;100.00
59170;BME280;52474;52.236;5.114;2023-04-24T01:31:07;99933.81;;;8.79;100.00
59170;BME280;52474;52.236;5.114;2023-04-24T01:33:34;99930.19;;;8.80;100.00
59170;BME280;52474;52.236;5.114;2023-04-24T01:36:00;99922.16;;;8.81;100.00
59170;BME280;52474;52.236;5.114;2023-04-24T01:38:26;99922.41;;;8.78;100.00
59170;BME280;52474;52.236;5.114;2023-04-24T01:40:52;99925.91;;;8.79;100.00
59170;BME280;52474;52.236;5.114;2023-04-24T01:43:19;99908.41;;;8.68;100.00
59170;BME280;52474;52.236;5.114;2023-04-24T01:45:45;99919.09;;;8.76;100.00
59170;BME280;52474;52.236;5.114;2023-04-24T01:48:11;99897.03;;;8.58;100.00
59170;BME280;52474;52.236;5.114;2023-04-24T01:50:38;99918.56;;;8.63;100.00
59170;BME280;52474;52.236;5.114;2023-04-24T01:53:03;99924.81;;;8.72;100.00
59170;BME280;52474;52.236;5.114;2023-04-24T01:55:30;99920.38;;;8.53;100.00
59170;BME280;52474;52.236;5.114;2023-04-24T01:57:56;99919.69;;;8.51;100.00
59170;BME280;52474;52.236;5.114;2023-04-24T02:00:22;99936.50;;;8.59;100.00
59170;BME280;52474;52.236;5.114;2023-04-24T02:02:48;99933.84;;;8.59;100.00
59170;BME280;52474;52.236;5.114;2023-04-24T02:05:14;99941.59;;;8.61;100.00
59170;BME280;52474;52.236;5.114;2023-04-24T02:07:40;99935.78;;;8.57;100.00
59170;BME280;52474;52.236;5.114;2023-04-24T02:10:09;99933.84;;;8.59;100.00
59170;BME280;52474;52.236;5.114;2023-04-24T02:12:36;99891.91;;;8.27;100.00
59170;BME280;52474;52.236;5.114;2023-04-24T02:15:02;99940.94;;;8.59;100.00
59170;BME280;52474;52.236;5.114;2023-04-24T02:17:28;99951.63;;;8.57;100.00
59170;BME280;52474;52.236;5.114;2023-04-24T02:19:56;99945.22;;;8.60;100.00
59170;BME280;52474;52.236;5.114;2023-04-24T02:22:22;99949.00;;;8.57;100.00
59170;BME280;52474;52.236;5.114;2023-04-24T02:24:48;99943.59;;;8.49;100.00
59170;BME280;52474;52.236;5.114;2023-04-24T02:27:15;99946.88;;;8.51;100.00
59170;BME280;52474;52.236;5.114;2023-04-24T02:29:41;99929.50;;;8.39;100.00
59170;BME280;52474;52.236;5.114;2023-04-24T02:32:06;99947.34;;;8.47;100.00
59170;BME280;52474;52.236;5.114;2023-04-24T02:34:32;99950.09;;;8.45;100.00
59170;BME280;52474;52.236;5.114;2023-04-24T02:36:59;99949.28;;;8.45;100.00
59170;BME280;52474;52.236;5.114;2023-04-24T02:39:24;99950.59;;;8.39;100.00
59170;BME280;52474;52.236;5.114;2023-04-24T02:41:51;99952.16;;;8.42;100.00
59170;BME280;52474;52.236;5.114;2023-04-24T02:44:17;99952.41;;;8.38;100.00
59170;BME280;52474;52.236;5.114;2023-04-24T02:46:43;99955.06;;;8.38;100.00
59170;BME280;52474;52.236;5.114;2023-04-24T02:49:10;99916.88;;;8.23;100.00
59170;BME280;52474;52.236;5.114;2023-04-24T02:51:37;99933.41;;;8.35;100.00
59170;BME280;52474;52.236;5.114;2023-04-24T02:54:08;99950.81;;;8.47;100.00
59170;BME280;52474;52.236;5.114;2023-04-24T02:56:34;99950.22;;;8.44;100.00
59170;BME280;52474;52.236;5.114;2023-04-24T02:59:01;99954.13;;;8.49;100.00
59170;BME280;52474;52.236;5.114;2023-04-24T03:01:30;99948.88;;;8.49;100.00
59170;BME280;52474;52.236;5.114;2023-04-24T03:03:56;99944.41;;;8.50;100.00
59170;BME280;52474;52.236;5.114;2023-04-24T03:06:22;99946.88;;;8.51;100.00
59170;BME280;52474;52.236;5.114;2023-04-24T03:08:48;99953.16;;;8.50;100.00
59170;BME280;52474;52.236;5.114;2023-04-24T03:11:14;99934.56;;;8.42;100.00
59170;BME280;52474;52.236;5.114;2023-04-24T03:13:41;99949.00;;;8.48;100.00
59170;BME280;52474;52.236;5.114;2023-04-24T03:16:07;99925.34;;;8.36;100.00
59170;BME280;52474;52.236;5.114;2023-04-24T03:18:33;99954.25;;;8.48;100.00
59170;BME280;52474;52.236;5.114;2023-04-24T03:20:59;99951.75;;;8.46;100.00
59170;BME280;52474;52.236;5.114;2023-04-24T03:23:26;99947.44;;;8.35;100.00
59170;BME280;52474;52.236;5.114;2023-04-24T03:25:53;99950.81;;;8.47;100.00
59170;BME280;52474;52.236;5.114;2023-04-24T03:28:20;99954.41;;;8.46;100.00
59170;BME280;52474;52.236;5.114;2023-04-24T03:30:59;99949.28;;;8.45;100.00
59170;BME280;52474;52.236;5.114;2023-04-24T03:33:28;99950.94;;;8.46;100.00
59170;BME280;52474;52.236;5.114;2023-04-24T03:36:02;99942.19;;;8.45;100.00
59170;BME280;52474;52.236;5.114;2023-04-24T03:38:35;99951.91;;;8.45;100.00
59170;BME280;52474;52.236;5.114;2023-04-24T03:41:23;99944.50;;;8.38;100.00
59170;BME280;52474;52.236;5.114;2023-04-24T03:43:54;99952.41;;;8.38;100.00
59170;BME280;52474;52.236;5.114;2023-04-24T03:46:20;99922.03;;;8.25;100.00
59170;BME280;52474;52.236;5.114;2023-04-24T03:48:55;99939.22;;;8.38;100.00
59170;BME280;52474;52.236;5.114;2023-04-24T03:51:26;99938.03;;;8.43;100.00
59170;BME280;52474;52.236;5.114;2023-04-24T03:53:56;99930.19;;;8.31;100.00
59170;BME280;52474;52.236;5.114;2023-04-24T03:56:26;99927.44;;;8.33;100.00
59170;BME280;52474;52.236;5.114;2023-04-24T03:58:55;99926.75;;;8.31;100.00
59170;BME280;52474;52.236;5.114;2023-04-24T04:01:20;99917.44;;;8.27;100.00
59170;BME280;52474;52.236;5.114;2023-04-24T04:03:58;99950.06;;;8.35;100.00
59170;BME280;52474;52.236;5.114;2023-04-24T04:06:26;99927.16;;;8.26;100.00
59170;BME280;52474;52.236;5.114;2023-04-24T04:08:54;99959.78;;;8.35;100.00
59170;BME280;52474;52.236;5.114;2023-04-24T04:11:19;99958.69;;;8.37;100.00
59170;BME280;52474;52.236;5.114;2023-04-24T04:13:45;99963.97;;;8.37;100.00
59170;BME280;52474;52.236;5.114;2023-04-24T04:16:14;99955.88;;;8.29;100.00
59170;BME280;52474;52.236;5.114;2023-04-24T04:18:43;99972.69;;;8.38;100.00
59170;BME280;52474;52.236;5.114;2023-04-24T04:21:09;99980.63;;;8.38;100.00
59170;BME280;52474;52.236;5.114;2023-04-24T04:23:36;99979.63;;;8.39;100.00
59170;BME280;52474;52.236;5.114;2023-04-24T04:26:07;99978.72;;;8.40;100.00
59170;BME280;52474;52.236;5.114;2023-04-24T04:28:59;99963.66;;;8.31;100.00
59170;BME280;52474;52.236;5.114;2023-04-24T04:31:26;99983.16;;;8.40;100.00
59170;BME280;52474;52.236;5.114;2023-04-24T04:33:53;99988.66;;;8.36;100.00
59170;BME280;52474;52.236;5.114;2023-04-24T04:36:19;99988.53;;;8.38;100.00
59170;BME280;52474;52.236;5.114;2023-04-24T04:38:50;99992.81;;;8.39;100.00
59170;BME280;52474;52.236;5.114;2023-04-24T04:41:45;100007.56;;;8.32;100.00
59170;BME280;52474;52.236;5.114;2023-04-24T04:44:16;99986.28;;;8.14;100.00
59170;BME280;52474;52.236;5.114;2023-04-24T04:46:42;100008.66;;;8.29;100.00
59170;BME280;52474;52.236;5.114;2023-04-24T04:49:19;100017.41;;;8.30;100.00
59170;BME280;52474;52.236;5.114;2023-04-24T04:51:47;100019.34;;;8.28;100.00
59170;BME280;52474;52.236;5.114;2023-04-24T04:54:14;100026.69;;;8.24;100.00
59170;BME280;52474;52.236;5.114;2023-04-24T04:56:41;100031.69;;;8.17;100.00
59170;BME280;52474;52.236;5.114;2023-04-24T04:59:07;100030.00;;;8.16;100.00
59170;BME280;52474;52.236;5.114;2023-04-24T05:01:35;100014.31;;;8.05;100.00
59170;BME280;52474;52.236;5.114;2023-04-24T05:04:02;100020.00;;;8.01;100.00
59170;BME280;52474;52.236;5.114;2023-04-24T05:06:28;100026.50;;;7.96;100.00
59170;BME280;52474;52.236;5.114;2023-04-24T05:08:54;100035.50;;;7.94;100.00
59170;BME280;52474;52.236;5.114;2023-04-24T05:11:41;100045.09;;;8.05;100.00
59170;BME280;52474;52.236;5.114;2023-04-24T05:14:07;100046.63;;;7.98;100.00
59170;BME280;52474;52.236;5.114;2023-04-24T05:16:38;100057.19;;;7.98;100.00
59170;BME280;52474;52.236;5.114;2023-04-24T05:19:06;100064.22;;;7.97;100.00
59170;BME280;52474;52.236;5.114;2023-04-24T05:21:36;100045.19;;;7.84;100.00
59170;BME280;52474;52.236;5.114;2023-04-24T05:24:02;100049.91;;;7.90;100.00
59170;BME280;52474;52.236;5.114;2023-04-24T05:26:43;100067.13;;;7.94;100.00
59170;BME280;52474;52.236;5.114;2023-04-24T05:29:10;100085.31;;;7.97;100.00
59170;BME280;52474;52.236;5.114;2023-04-24T05:31:37;100078.50;;;7.94;100.00
59170;BME280;52474;52.236;5.114;2023-04-24T05:34:03;100069.34;;;7.89;100.00
59170;BME280;52474;52.236;5.114;2023-04-24T05:36:29;100086.19;;;7.98;100.00
59170;BME280;52474;52.236;5.114;2023-04-24T05:38:56;100090.47;;;7.99;100.00
59170;BME280;52474;52.236;5.114;2023-04-24T05:41:22;100062.19;;;7.70;100.00
59170;BME280;52474;52.236;5.114;2023-04-24T05:43:47;100076.81;;;7.84;100.00
59170;BME280;52474;52.236;5.114;2023-04-24T05:46:13;100100.91;;;8.00;100.00
59170;BME280;52474;52.236;5.114;2023-04-24T05:48:39;100105.59;;;7.96;100.00
59170;BME280;52474;52.236;5.114;2023-04-24T05:51:05;100097.38;;;7.90;100.00
59170;BME280;52474;52.236;5.114;2023-04-24T05:53:31;100109.63;;;8.01;100.00
59170;BME280;52474;52.236;5.114;2023-04-24T05:56:01;100118.09;;;8.04;100.00
59170;BME280;52474;52.236;5.114;2023-04-24T05:58:27;100124.91;;;8.07;100.00
59170;BME280;52474;52.236;5.114;2023-04-24T06:00:53;100141.88;;;8.14;100.00
59170;BME280;52474;52.236;5.114;2023-04-24T06:03:19;100143.56;;;8.15;100.00
59170;BME280;52474;52.236;5.114;2023-04-24T06:05:47;100156.91;;;8.23;100.00
59170;BME280;52474;52.236;5.114;2023-04-24T06:08:13;100158.13;;;8.19;100.00
59170;BME280;52474;52.236;5.114;2023-04-24T06:10:40;100171.47;;;8.17;100.00
59170;BME280;52474;52.236;5.114;2023-04-24T06:13:08;100172.59;;;8.15;100.00
59170;BME280;52474;52.236;5.114;2023-04-24T06:15:36;100185.78;;;8.15;100.00
59170;BME280;52474;52.236;5.114;2023-04-24T06:18:13;100196.56;;;8.12;100.00
59170;BME280;52474;52.236;5.114;2023-04-24T06:20:41;100205.44;;;8.11;100.00
59170;BME280;52474;52.236;5.114;2023-04-24T06:23:08;100199.63;;;8.07;100.00
59170;BME280;52474;52.236;5.114;2023-04-24T06:25:35;100190.09;;;7.95;100.00
59170;BME280;52474;52.236;5.114;2023-04-24T06:28:01;100215.44;;;8.07;100.00
59170;BME280;52474;52.236;5.114;2023-04-24T06:30:29;100222.38;;;8.08;100.00
59170;BME280;52474;52.236;5.114;2023-04-24T06:32:58;100232.91;;;8.08;100.00
59170;BME280;52474;52.236;5.114;2023-04-24T06:35:24;100230.94;;;8.01;100.00
59170;BME280;52474;52.236;5.114;2023-04-24T06:37:50;100234.59;;;7.88;100.00
59170;BME280;52474;52.236;5.114;2023-04-24T06:40:16;100256.84;;;7.95;100.00
59170;BME280;52474;52.236;5.114;2023-04-24T06:42:44;100252.53;;;7.94;100.00
59170;BME280;52474;52.236;5.114;2023-04-24T06:45:10;100265.88;;;7.93;100.00
59170;BME280;52474;52.236;5.114;2023-04-24T06:47:36;100265.72;;;7.94;100.00
59170;BME280;52474;52.236;5.114;2023-04-24T06:50:03;100258.25;;;7.79;100.00
59170;BME280;52474;52.236;5.114;2023-04-24T06:52:30;100272.16;;;7.81;100.00
59170;BME280;52474;52.236;5.114;2023-04-24T06:55:03;100290.16;;;7.96;100.00
59170;BME280;52474;52.236;5.114;2023-04-24T06:57:29;100294.50;;;7.98;100.00
59170;BME280;52474;52.236;5.114;2023-04-24T06:59:55;100297.44;;;8.04;100.00
59170;BME280;52474;52.236;5.114;2023-04-24T07:02:22;100291.97;;;7.96;100.00
59170;BME280;52474;52.236;5.114;2023-04-24T07:04:47;100308.56;;;8.08;100.00
59170;BME280;52474;52.236;5.114;2023-04-24T07:07:14;100309.22;;;8.00;100.00
59170;BME280;52474;52.236;5.114;2023-04-24T07:09:40;100315.06;;;8.04;100.00
59170;BME280;52474;52.236;5.114;2023-04-24T07:12:11;100321.31;;;8.03;100.00
59170;BME280;52474;52.236;5.114;2023-04-24T07:14:38;100327.97;;;8.07;100.00
59170;BME280;52474;52.236;5.114;2023-04-24T07:17:04;100327.41;;;8.03;100.00
59170;BME280;52474;52.236;5.114;2023-04-24T07:19:33;100340.22;;;8.08;100.00
59170;BME280;52474;52.236;5.114;2023-04-24T07:21:59;100337.59;;;8.08;100.00
59170;BME280;52474;52.236;5.114;2023-04-24T07:24:25;100349.31;;;8.15;100.00
59170;BME280;52474;52.236;5.114;2023-04-24T07:26:54;100330.16;;;8.02;100.00
59170;BME280;52474;52.236;5.114;2023-04-24T07:29:24;100353.03;;;8.12;100.00
59170;BME280;52474;52.236;5.114;2023-04-24T07:31:50;100351.78;;;7.95;100.00
59170;BME280;52474;52.236;5.114;2023-04-24T07:34:16;100343.28;;;7.92;100.00
59170;BME280;52474;52.236;5.114;2023-04-24T07:36:42;100368.06;;;8.01;100.00
59170;BME280;52474;52.236;5.114;2023-04-24T07:39:07;100373.34;;;8.01;100.00
59170;BME280;52474;52.236;5.114;2023-04-24T07:41:33;100389.72;;;8.04;100.00
59170;BME280;52474;52.236;5.114;2023-04-24T07:43:59;100376.22;;;7.98;100.00
59170;BME280;52474;52.236;5.114;2023-04-24T07:46:25;100394.44;;;8.01;100.00
59170;BME280;52474;52.236;5.114;2023-04-24T07:48:58;100413.00;;;7.99;100.00
59170;BME280;52474;52.236;5.114;2023-04-24T07:51:27;100411.34;;;7.98;100.00
59170;BME280;52474;52.236;5.114;2023-04-24T07:53:54;100415.25;;;7.71;100.00
59170;BME280;52474;52.236;5.114;2023-04-24T07:56:23;100430.19;;;7.82;100.00
59170;BME280;52474;52.236;5.114;2023-04-24T07:58:49;100425.06;;;7.81;100.00
59170;BME280;52474;52.236;5.114;2023-04-24T08:01:15;100453.28;;;7.90;100.00
59170;BME280;52474;52.236;5.114;2023-04-24T08:03:41;100436.88;;;7.98;100.00
59170;BME280;52474;52.236;5.114;2023-04-24T08:06:07;100431.72;;;7.85;100.00
59170;BME280;52474;52.236;5.114;2023-04-24T08:08:33;100456.41;;;7.95;100.00
59170;BME280;52474;52.236;5.114;2023-04-24T08:10:59;100465.25;;;8.05;100.00
59170;BME280;52474;52.236;5.114;2023-04-24T08:13:25;100466.09;;;7.94;100.00
59170;BME280;52474;52.236;5.114;2023-04-24T08:15:51;100475.34;;;8.00;100.00
59170;BME280;52474;52.236;5.114;2023-04-24T08:18:17;100482.63;;;8.08;100.00
59170;BME280;52474;52.236;5.114;2023-04-24T08:20:43;100479.72;;;8.22;100.00
59170;BME280;52474;52.236;5.114;2023-04-24T08:23:11;100487.13;;;8.28;100.00
59170;BME280;52474;52.236;5.114;2023-04-24T08:25:36;100484.03;;;8.23;100.00
59170;BME280;52474;52.236;5.114;2023-04-24T08:28:03;100481.75;;;8.18;100.00
59170;BME280;52474;52.236;5.114;2023-04-24T08:30:29;100503.53;;;8.43;100.00
59170;BME280;52474;52.236;5.114;2023-04-24T08:32:55;100509.53;;;8.34;100.00
59170;BME280;52474;52.236;5.114;2023-04-24T08:35:21;100515.91;;;8.43;100.00
59170;BME280;52474;52.236;5.114;2023-04-24T08:37:48;100501.75;;;8.32;100.00
59170;BME280;52474;52.236;5.114;2023-04-24T08:40:16;100509.66;;;8.44;100.00
59170;BME280;52474;52.236;5.114;2023-04-24T08:42:43;100523.75;;;8.54;100.00
59170;BME280;52474;52.236;5.114;2023-04-24T08:45:10;100515.84;;;8.54;100.00
59170;BME280;52474;52.236;5.114;2023-04-24T08:47:38;100520.38;;;8.63;100.00
59170;BME280;52474;52.236;5.114;2023-04-24T08:50:08;100526.63;;;8.83;100.00
59170;BME280;52474;52.236;5.114;2023-04-24T08:52:35;100517.25;;;8.69;100.00
59170;BME280;52474;52.236;5.114;2023-04-24T08:55:02;100524.16;;;8.49;100.00
59170;BME280;52474;52.236;5.114;2023-04-24T08:57:30;100525.63;;;8.42;100.00
59170;BME280;52474;52.236;5.114;2023-04-24T08:59:58;100546.84;;;8.41;100.00
59170;BME280;52474;52.236;5.114;2023-04-24T09:02:24;100556.91;;;8.35;100.00
59170;BME280;52474;52.236;5.114;2023-04-24T09:04:56;100557.13;;;8.55;100.00
59170;BME280;52474;52.236;5.114;2023-04-24T09:07:24;100532.06;;;8.38;100.00
59170;BME280;52474;52.236;5.114;2023-04-24T09:09:52;100560.81;;;8.64;100.00
59170;BME280;52474;52.236;5.114;2023-04-24T09:12:18;100556.97;;;8.68;100.00
59170;BME280;52474;52.236;5.114;2023-04-24T09:14:45;100555.03;;;8.70;100.00
59170;BME280;52474;52.236;5.114;2023-04-24T09:17:14;100564.66;;;8.92;100.00
59170;BME280;52474;52.236;5.114;2023-04-24T09:19:40;100554.41;;;8.77;100.00
59170;BME280;52474;52.236;5.114;2023-04-24T09:22:06;100574.16;;;8.83;100.00
59170;BME280;52474;52.236;5.114;2023-04-24T09:24:33;100575.16;;;9.03;100.00
59170;BME280;52474;52.236;5.114;2023-04-24T09:27:00;100572.53;;;9.24;100.00
59170;BME280;52474;52.236;5.114;2023-04-24T09:29:27;100567.38;;;9.43;100.00
59170;BME280;52474;52.236;5.114;2023-04-24T09:31:53;100568.25;;;9.75;100.00
59170;BME280;52474;52.236;5.114;2023-04-24T09:34:25;100573.06;;;9.70;100.00
59170;BME280;52474;52.236;5.114;2023-04-24T09:36:52;100577.75;;;9.56;100.00
59170;BME280;52474;52.236;5.114;2023-04-24T09:39:18;100582.81;;;9.69;100.00
59170;BME280;52474;52.236;5.114;2023-04-24T09:44:17;100583.50;;;9.92;100.00
59170;BME280;52474;52.236;5.114;2023-04-24T09:46:49;100585.22;;;10.13;100.00
59170;BME280;52474;52.236;5.114;2023-04-24T09:49:19;100598.91;;;10.27;100.00
59170;BME280;52474;52.236;5.114;2023-04-24T09:51:45;100601.56;;;9.97;100.00
59170;BME280;52474;52.236;5.114;2023-04-24T09:54:38;100619.22;;;9.56;100.00
59170;BME280;52474;52.236;5.114;2023-04-24T09:57:04;100618.09;;;9.16;100.00
59170;BME280;52474;52.236;5.114;2023-04-24T09:59:32;100629.97;;;9.22;100.00
59170;BME280;52474;52.236;5.114;2023-04-24T10:01:59;100612.38;;;9.11;100.00
59170;BME280;52474;52.236;5.114;2023-04-24T10:04:27;100612.94;;;9.57;100.00
59170;BME280;52474;52.236;5.114;2023-04-24T10:06:55;100630.19;;;9.82;100.00
59170;BME280;52474;52.236;5.114;2023-04-24T10:09:24;100623.38;;;10.50;100.00
59170;BME280;52474;52.236;5.114;2023-04-24T10:11:52;100624.00;;;10.73;100.00
59170;BME280;52474;52.236;5.114;2023-04-24T10:14:23;100624.84;;;11.23;100.00
59170;BME280;52474;52.236;5.114;2023-04-24T10:16:52;100613.47;;;12.62;100.00
59170;BME280;52474;52.236;5.114;2023-04-24T10:19:18;100617.22;;;13.05;100.00
59170;BME280;52474;52.236;5.114;2023-04-24T10:21:45;100612.63;;;11.59;100.00
59170;BME280;52474;52.236;5.114;2023-04-24T10:24:18;100629.00;;;10.67;100.00
59170;BME280;52474;52.236;5.114;2023-04-24T10:26:46;100640.03;;;10.01;100.00
59170;BME280;52474;52.236;5.114;2023-04-24T10:29:16;100639.47;;;9.97;100.00
59170;BME280;52474;52.236;5.114;2023-04-24T10:31:42;100640.53;;;9.85;100.00
59170;BME280;52474;52.236;5.114;2023-04-24T10:34:11;100653.25;;;9.70;100.00
59170;BME280;52474;52.236;5.114;2023-04-24T10:36:42;100644.31;;;9.08;100.00
59170;BME280;52474;52.236;5.114;2023-04-24T10:39:16;100667.13;;;8.66;100.00
59170;BME280;52474;52.236;5.114;2023-04-24T10:41:45;100674.94;;;8.33;100.00
59170;BME280;52474;52.236;5.114;2023-04-24T10:44:13;100672.31;;;8.22;100.00
59170;BME280;52474;52.236;5.114;2023-04-24T10:46:45;100690.03;;;8.54;100.00
59170;BME280;52474;52.236;5.114;2023-04-24T10:49:14;100675.84;;;8.77;100.00
59170;BME280;52474;52.236;5.114;2023-04-24T10:51:48;100694.66;;;9.60;100.00
59170;BME280;52474;52.236;5.114;2023-04-24T10:59:44;100673.28;;;12.48;100.00
59170;BME280;52474;52.236;5.114;2023-04-24T11:02:10;100661.72;;;14.43;100.00
59170;BME280;52474;52.236;5.114;2023-04-24T11:04:36;100675.56;;;14.89;100.00
59170;BME280;52474;52.236;5.114;2023-04-24T11:07:03;100655.28;;;14.20;100.00
59170;BME280;52474;52.236;5.114;2023-04-24T11:09:32;100674.09;;;13.92;100.00
59170;BME280;52474;52.236;5.114;2023-04-24T11:12:09;100690.06;;;12.66;100.00
59170;BME280;52474;52.236;5.114;2023-04-24T11:17:35;100690.41;;;11.21;100.00
59170;BME280;52474;52.236;5.114;2023-04-24T11:20:04;100668.94;;;13.90;100.00
59170;BME280;52474;52.236;5.114;2023-04-24T11:22:37;100663.34;;;14.36;100.00
59170;BME280;52474;52.236;5.114;2023-04-24T11:25:09;100667.16;;;14.68;100.00
59170;BME280;52474;52.236;5.114;2023-04-24T11:27:49;100685.28;;;14.56;100.00
59170;BME280;52474;52.236;5.114;2023-04-24T11:30:19;100681.22;;;14.52;100.00
59170;BME280;52474;52.236;5.114;2023-04-24T11:32:51;100674.88;;;14.45;100.00
59170;BME280;52474;52.236;5.114;2023-04-24T11:35:26;100709.72;;;13.91;100.00
59170;BME280;52474;52.236;5.114;2023-04-24T11:37:54;100681.34;;;14.42;100.00
59170;BME280;52474;52.236;5.114;2023-04-24T11:40:22;100696.06;;;14.97;100.00
59170;BME280;52474;52.236;5.114;2023-04-24T11:42:59;100719.09;;;14.29;100.00
59170;BME280;52474;52.236;5.114;2023-04-24T11:45:28;100696.72;;;13.44;100.00
59170;BME280;52474;52.236;5.114;2023-04-24T11:47:55;100697.16;;;12.11;100.00
59170;BME280;52474;52.236;5.114;2023-04-24T11:50:23;100725.56;;;11.03;100.00
59170;BME280;52474;52.236;5.114;2023-04-24T11:52:51;100714.31;;;10.70;100.00
59170;BME280;52474;52.236;5.114;2023-04-24T11:57:44;100734.09;;;11.46;100.00
59170;BME280;52474;52.236;5.114;2023-04-24T12:00:20;100728.91;;;11.34;100.00
59170;BME280;52474;52.236;5.114;2023-04-24T12:02:49;100741.34;;;11.44;100.00
59170;BME280;52474;52.236;5.114;2023-04-24T12:05:28;100741.06;;;11.76;100.00
59170;BME280;52474;52.236;5.114;2023-04-24T12:07:57;100733.81;;;11.49;100.00
59170;BME280;52474;52.236;5.114;2023-04-24T12:10:30;100741.31;;;11.05;100.00
59170;BME280;52474;52.236;5.114;2023-04-24T12:12:59;100748.16;;;11.17;100.00
59170;BME280;52474;52.236;5.114;2023-04-24T12:15:26;100742.19;;;11.64;100.00
59170;BME280;52474;52.236;5.114;2023-04-24T12:17:53;100747.31;;;11.07;100.00
59170;BME280;52474;52.236;5.114;2023-04-24T12:20:32;100758.22;;;10.73;100.00
59170;BME280;52474;52.236;5.114;2023-04-24T12:23:01;100759.56;;;10.98;100.00
59170;BME280;52474;52.236;5.114;2023-04-24T12:25:38;100763.03;;;10.48;100.00
59170;BME280;52474;52.236;5.114;2023-04-24T12:30:32;100790.03;;;9.68;100.00
59170;BME280;52474;52.236;5.114;2023-04-24T12:33:00;100803.00;;;9.39;100.00
59170;BME280;52474;52.236;5.114;2023-04-24T12:35:28;100810.50;;;9.00;100.00
59170;BME280;52474;52.236;5.114;2023-04-24T12:37:54;100817.84;;;8.85;100.00
59170;BME280;52474;52.236;5.114;2023-04-24T12:40:21;100818.69;;;8.97;100.00
59170;BME280;52474;52.236;5.114;2023-04-24T12:42:51;100825.19;;;8.81;100.00
59170;BME280;52474;52.236;5.114;2023-04-24T12:45:18;100826.97;;;8.81;100.00
59170;BME280;52474;52.236;5.114;2023-04-24T12:47:45;100822.53;;;9.04;100.00
59170;BME280;52474;52.236;5.114;2023-04-24T12:50:14;100825.03;;;9.28;100.00
59170;BME280;52474;52.236;5.114;2023-04-24T12:52:41;100809.53;;;9.12;100.00
59170;BME280;52474;52.236;5.114;2023-04-24T12:55:08;100826.69;;;9.29;100.00
59170;BME280;52474;52.236;5.114;2023-04-24T12:57:36;100826.91;;;9.70;100.00
59170;BME280;52474;52.236;5.114;2023-04-24T13:00:07;100816.31;;;10.34;100.00
59170;BME280;52474;52.236;5.114;2023-04-24T13:02:33;100814.84;;;11.22;100.00
59170;BME280;52474;52.236;5.114;2023-04-24T13:05:00;100809.56;;;13.14;100.00
59170;BME280;52474;52.236;5.114;2023-04-24T13:07:26;100811.34;;;12.67;100.00
59170;BME280;52474;52.236;5.114;2023-04-24T13:09:54;100816.03;;;12.27;100.00
59170;BME280;52474;52.236;5.114;2023-04-24T13:12:20;100823.25;;;11.37;100.00